Time;durP1;ratioP1;P1;durP2;ratioP2;P2;SDS_P1;SDS_P2;PMS_P1;PMS_P2;Temp;Humidity;BMP_temperature;BMP_pressure;BME280_temperature;BME280_humidity;BME280_pressure;Samples;Min_cycle;Max_cycle;Signal;HPM_P1;HPM_P2
2021/08/22 00:00:10;;;;;;;3.63;3.03;;;;;;;20.19;54.33;101309.31;699350;28;23422;-63
2021/08/22 00:00:35;;;;;;;2.80;2.60;;;;;;;20.20;54.34;101316.44;695345;28;137877;-63
2021/08/22 00:00:56;;;;;;;3.00;2.80;;;;;;;20.17;54.33;101305.94;699654;28;22447;-63
2021/08/22 00:01:18;;;;;;;2.95;2.75;;;;;;;20.21;54.29;101314.56;699127;28;33398;-63
2021/08/22 00:01:42;;;;;;;3.13;2.83;;;;;;;20.20;54.45;101313.69;699960;28;901;-62
2021/08/22 00:02:04;;;;;;;3.15;2.80;;;;;;;20.20;54.48;101310.97;699203;28;13692;-62
2021/08/22 00:02:25;;;;;;;3.10;2.63;;;;;;;20.20;54.39;101310.97;699286;28;22494;-63
2021/08/22 00:02:47;;;;;;;3.05;2.58;;;;;;;20.20;54.25;101318.34;699830;28;1814;-63
2021/08/22 00:03:11;;;;;;;2.75;2.55;;;;;;;20.16;54.21;101305.09;700364;28;932;-61
2021/08/22 00:03:32;;;;;;;2.72;2.53;;;;;;;20.17;54.26;101305.94;697045;28;79379;-60
2021/08/22 00:03:53;;;;;;;2.80;2.60;;;;;;;20.19;54.21;101309.31;699631;28;22606;-63
2021/08/22 00:04:18;;;;;;;3.58;2.60;;;;;;;20.16;54.17;101310.59;699429;28;4049;-62
2021/08/22 00:04:40;;;;;;;3.15;2.88;;;;;;;20.15;54.27;101306.16;699084;28;66442;-63
2021/08/22 00:05:02;;;;;;;3.28;2.97;;;;;;;20.19;54.28;101305.69;700068;28;46317;-63
2021/08/22 00:05:23;;;;;;;3.20;2.90;;;;;;;20.16;54.27;101307.84;700173;28;23371;-63
2021/08/22 00:05:46;;;;;;;3.10;2.85;;;;;;;20.16;54.23;101305.09;700412;28;23394;-63
2021/08/22 00:06:07;;;;;;;3.10;2.90;;;;;;;20.16;54.16;101307.84;698951;28;69122;-63
2021/08/22 00:06:29;;;;;;;2.80;2.60;;;;;;;20.16;54.31;101307.84;701285;28;1072;-63
2021/08/22 00:06:50;;;;;;;3.03;2.72;;;;;;;20.18;54.30;101318.59;698626;28;44389;-63
2021/08/22 00:07:11;;;;;;;2.92;2.67;;;;;;;20.15;54.38;101303.41;701777;28;20634;-63
2021/08/22 00:07:32;;;;;;;3.78;2.85;;;;;;;20.16;54.33;101304.28;702070;28;23472;-63
2021/08/22 00:07:54;;;;;;;3.22;2.92;;;;;;;20.16;54.14;101307.84;701151;28;22114;-63
2021/08/22 00:08:15;;;;;;;2.90;2.70;;;;;;;20.16;54.38;101304.28;701205;28;46333;-63
2021/08/22 00:08:37;;;;;;;4.45;2.88;;;;;;;20.16;54.26;101310.59;699615;28;22395;-63
2021/08/22 00:08:58;;;;;;;3.08;2.80;;;;;;;20.16;54.21;101307.84;698581;28;45210;-63
2021/08/22 00:09:20;;;;;;;3.25;2.72;;;;;;;20.15;54.27;101300.66;698911;28;22407;-63
2021/08/22 00:09:42;;;;;;;2.75;2.55;;;;;;;20.15;54.14;101308.06;698175;28;45276;-63
2021/08/22 00:10:04;;;;;;;2.92;2.72;;;;;;;20.13;54.23;101307.47;697738;28;67786;-63
2021/08/22 00:10:25;;;;;;;3.13;2.90;;;;;;;20.14;54.23;101307.25;699025;28;23566;-63
2021/08/22 00:10:47;;;;;;;3.78;2.83;;;;;;;20.12;54.26;101298.38;698593;28;46310;-62
2021/08/22 00:11:09;;;;;;;3.10;2.80;;;;;;;20.13;54.28;101302.81;698209;28;41308;-61
2021/08/22 00:11:31;;;;;;;2.90;2.70;;;;;;;20.14;54.35;101300.91;698604;28;45290;-63
2021/08/22 00:11:53;;;;;;;3.20;3.00;;;;;;;20.15;54.30;101308.06;698191;28;46457;-63
2021/08/22 00:12:14;;;;;;;3.55;2.92;;;;;;;20.15;54.28;101300.66;698953;28;45138;-62
2021/08/22 00:12:36;;;;;;;3.20;2.55;;;;;;;20.13;54.26;101300.06;699620;28;23282;-63
2021/08/22 00:12:57;;;;;;;3.00;2.70;;;;;;;20.13;54.19;101299.25;699172;28;23537;-61
2021/08/22 00:13:19;;;;;;;3.15;2.85;;;;;;;20.13;54.10;101304.72;699231;28;22174;-62
2021/08/22 00:13:40;;;;;;;3.30;2.85;;;;;;;20.11;54.12;101304.09;698515;28;46332;-63
2021/08/22 00:14:01;;;;;;;3.00;2.80;;;;;;;20.11;54.24;101304.09;699239;28;20824;-63
2021/08/22 00:14:22;;;;;;;2.97;2.78;;;;;;;20.10;54.34;101306.00;699206;28;22454;-63
2021/08/22 00:14:44;;;;;;;3.00;2.70;;;;;;;20.10;54.41;101300.53;699090;28;17926;-64
2021/08/22 00:15:06;;;;;;;2.70;2.50;;;;;;;20.10;54.36;101302.44;698704;28;46334;-63
2021/08/22 00:15:27;;;;;;;2.97;2.70;;;;;;;20.09;54.32;101298.84;697822;28;44147;-62
2021/08/22 00:15:49;;;;;;;4.07;2.85;;;;;;;20.09;54.30;101298.00;699782;28;12946;-63
2021/08/22 00:16:11;;;;;;;4.35;2.90;;;;;;;20.09;54.38;101298.00;698002;28;45778;-63
2021/08/22 00:16:32;;;;;;;2.80;2.60;;;;;;;20.08;54.27;101293.59;698312;28;46332;-63
2021/08/22 00:16:53;;;;;;;2.90;2.70;;;;;;;20.08;54.40;101296.34;699240;28;23477;-63
2021/08/22 00:17:15;;;;;;;2.90;2.70;;;;;;;20.09;54.26;101298.84;699199;28;22396;-63
2021/08/22 00:17:37;;;;;;;3.03;2.80;;;;;;;20.10;54.10;101296.94;698238;28;46378;-60
2021/08/22 00:17:58;;;;;;;3.40;2.75;;;;;;;20.11;54.23;101298.59;698439;28;44410;-62
2021/08/22 00:18:19;;;;;;;4.75;2.90;;;;;;;20.11;54.14;101293.13;699259;28;22308;-63
2021/08/22 00:18:41;;;;;;;2.95;2.50;;;;;;;20.09;54.16;101290.59;699305;28;21541;-64
2021/08/22 00:19:02;;;;;;;2.60;2.40;;;;;;;20.09;54.20;101296.09;698974;28;33693;-63
2021/08/22 00:19:23;;;;;;;3.58;2.90;;;;;;;20.09;54.12;101293.34;699570;28;22414;-63
2021/08/22 00:19:45;;;;;;;3.25;2.60;;;;;;;20.09;54.23;101293.34;699329;28;21563;-63
2021/08/22 00:20:08;;;;;;;3.20;2.90;;;;;;;20.06;54.08;101285.59;699445;28;23443;-63
2021/08/22 00:20:29;;;;;;;3.00;2.80;;;;;;;20.09;54.38;101287.88;696901;28;91832;-62
2021/08/22 00:20:50;;;;;;;3.10;2.80;;;;;;;20.10;54.28;101289.56;699350;28;17718;-62
2021/08/22 00:21:11;;;;;;;5.00;2.88;;;;;;;20.08;54.17;101297.19;699002;28;24712;-63
2021/08/22 00:21:33;;;;;;;3.33;2.97;;;;;;;20.08;54.17;101296.34;699464;28;22286;-63
2021/08/22 00:21:55;;;;;;;2.97;2.78;;;;;;;20.07;54.12;101291.91;698696;28;44550;-63
2021/08/22 00:22:16;;;;;;;3.03;2.83;;;;;;;20.06;54.13;101288.34;699164;28;21284;-63
2021/08/22 00:22:37;;;;;;;2.90;2.70;;;;;;;20.06;54.22;101296.56;698823;28;22413;-62
2021/08/22 00:22:58;;;;;;;2.90;2.70;;;;;;;20.06;54.25;101293.84;699334;28;23461;-63
2021/08/22 00:23:20;;;;;;;2.97;2.78;;;;;;;20.05;54.17;101292.16;698069;28;46398;-63
2021/08/22 00:23:41;;;;;;;3.10;2.80;;;;;;;20.05;54.27;101296.81;694375;28;44561;-63
2021/08/22 00:24:03;;;;;;;3.15;2.95;;;;;;;20.03;54.22;101297.03;694782;28;22431;-64
2021/08/22 00:24:24;;;;;;;3.70;3.30;;;;;;;20.03;54.40;101296.16;695277;28;22484;-63
2021/08/22 00:24:48;;;;;;;3.30;3.00;;;;;;;20.03;54.22;101296.16;697089;28;45254;-63
2021/08/22 00:25:09;;;;;;;3.20;2.90;;;;;;;20.02;54.22;101291.78;690989;28;67585;-62
2021/08/22 00:25:30;;;;;;;2.90;2.70;;;;;;;20.01;54.28;101296.41;695599;28;22396;-64
2021/08/22 00:26:03;;;;;;;2.67;2.47;;;;;;;19.99;54.31;101291.13;698286;28;60290;-63
2021/08/22 00:26:36;;;;;;;2.78;2.58;;;;;;;20.01;54.38;101295.56;694734;28;138171;-64
2021/08/22 00:27:02;;;;;;;2.88;2.67;;;;;;;20.00;54.30;101289.25;697134;28;89152;-64
2021/08/22 00:27:23;;;;;;;2.90;2.70;;;;;;;20.01;54.23;101292.81;698944;28;100739;-63
2021/08/22 00:27:45;;;;;;;2.97;2.78;;;;;;;20.01;54.32;101284.59;697363;28;46241;-64
2021/08/22 00:28:07;;;;;;;3.08;2.85;;;;;;;20.00;54.33;101289.25;699098;28;22403;-63
2021/08/22 00:28:28;;;;;;;3.30;3.00;;;;;;;20.01;54.33;101304.63;698337;28;46391;-63
2021/08/22 00:28:49;;;;;;;3.17;2.90;;;;;;;20.00;54.30;101294.75;698795;28;21432;-63
2021/08/22 00:29:11;;;;;;;2.90;2.70;;;;;;;20.00;54.30;101289.25;698660;28;21149;-63
2021/08/22 00:29:33;;;;;;;2.75;2.55;;;;;;;19.98;54.35;101288.63;697712;28;45394;-63
2021/08/22 00:29:54;;;;;;;3.17;2.90;;;;;;;19.99;54.32;101293.88;698269;28;46344;-63
2021/08/22 00:30:15;;;;;;;3.00;2.78;;;;;;;19.98;54.36;101294.09;699361;28;22347;-63
2021/08/22 00:30:36;;;;;;;2.75;2.55;;;;;;;19.94;54.43;101282.75;699292;28;21562;-63
2021/08/22 00:30:58;;;;;;;2.97;2.78;;;;;;;19.98;54.45;101294.09;699669;28;22406;-62
2021/08/22 00:31:19;;;;;;;3.10;2.90;;;;;;;19.94;54.26;101288.25;698769;28;46305;-62
2021/08/22 00:31:42;;;;;;;3.20;3.00;;;;;;;19.97;54.46;101289.72;699277;28;22200;-64
2021/08/22 00:32:13;;;;;;;2.70;2.50;;;;;;;19.97;54.40;101298.75;698155;28;60551;-62
2021/08/22 00:32:35;;;;;;;3.30;2.65;;;;;;;19.91;54.33;101274.16;699401;28;22421;-63
2021/08/22 00:32:56;;;;;;;3.25;3.00;;;;;;;19.96;54.44;101297.06;698264;28;45270;-63
2021/08/22 00:33:17;;;;;;;3.15;2.85;;;;;;;19.94;54.56;101288.25;698616;28;23833;-63
2021/08/22 00:33:39;;;;;;;2.92;2.45;;;;;;;19.96;54.45;101293.50;699134;28;22415;-63
2021/08/22 00:34:00;;;;;;;2.80;2.60;;;;;;;19.95;54.50;101298.16;698741;28;44475;-63
2021/08/22 00:34:21;;;;;;;3.05;2.78;;;;;;;19.96;54.36;101294.34;698429;28;23398;-63
2021/08/22 00:34:42;;;;;;;3.38;2.70;;;;;;;19.93;54.45;101293.97;699458;28;22461;-64
2021/08/22 00:35:04;;;;;;;3.80;2.97;;;;;;;19.90;54.32;101284.28;698161;28;22364;-62
2021/08/22 00:35:26;;;;;;;5.00;2.92;;;;;;;19.93;54.50;101294.78;698386;28;44383;-62
2021/08/22 00:35:48;;;;;;;2.90;2.70;;;;;;;19.93;54.44;101294.78;698231;28;44428;-63
2021/08/22 00:36:09;;;;;;;2.97;2.78;;;;;;;19.92;54.60;101298.59;698457;28;23444;-63
2021/08/22 00:36:30;;;;;;;3.10;2.90;;;;;;;19.92;54.58;101293.13;699373;28;24318;-63
2021/08/22 00:36:54;;;;;;;3.10;2.78;;;;;;;19.92;54.65;101298.59;699195;28;22427;-63
2021/08/22 00:37:15;;;;;;;3.22;2.92;;;;;;;19.92;54.64;101295.00;696098;28;113940;-63
2021/08/22 00:37:36;;;;;;;3.10;2.90;;;;;;;19.90;54.63;101288.91;699147;28;22466;-60
2021/08/22 00:37:58;;;;;;;2.85;2.65;;;;;;;19.91;54.82;101291.44;699047;28;23890;-64
2021/08/22 00:38:20;;;;;;;3.08;2.85;;;;;;;19.93;54.57;101296.69;698475;28;42768;-64
2021/08/22 00:38:41;;;;;;;2.90;2.70;;;;;;;19.91;54.83;101294.19;699292;28;29674;-64
2021/08/22 00:39:02;;;;;;;2.90;2.70;;;;;;;19.93;54.65;101293.97;700196;28;924;-64
2021/08/22 00:39:24;;;;;;;2.95;2.63;;;;;;;19.93;54.59;101292.03;698827;28;22485;-64
2021/08/22 00:39:46;;;;;;;2.90;2.70;;;;;;;19.91;54.60;101294.19;698120;28;44423;-64
2021/08/22 00:40:09;;;;;;;3.15;2.92;;;;;;;19.92;54.62;101290.38;698489;28;45243;-64
2021/08/22 00:40:30;;;;;;;2.95;2.75;;;;;;;19.91;54.58;101290.59;697567;28;70369;-64
2021/08/22 00:40:51;;;;;;;3.30;3.00;;;;;;;19.91;54.56;101290.59;699865;28;21452;-63
2021/08/22 00:41:15;;;;;;;4.60;3.10;;;;;;;19.91;54.53;101293.34;699131;28;22386;-64
2021/08/22 00:41:38;;;;;;;3.03;2.72;;;;;;;19.91;54.60;101293.34;696799;28;91597;-63
2021/08/22 00:42:00;;;;;;;3.90;2.90;;;;;;;19.90;54.54;101286.19;696821;28;69304;-64
2021/08/22 00:42:22;;;;;;;3.03;2.83;;;;;;;19.90;54.74;101288.91;699532;28;44854;-64
2021/08/22 00:42:48;;;;;;;2.92;2.72;;;;;;;19.90;54.63;101292.50;699333;28;59895;-64
2021/08/22 00:43:09;;;;;;;2.95;2.63;;;;;;;19.89;54.59;101288.09;699820;28;31137;-63
2021/08/22 00:43:30;;;;;;;4.15;2.70;;;;;;;19.88;54.70;101286.41;700533;28;23536;-63
2021/08/22 00:43:52;;;;;;;3.33;2.75;;;;;;;19.88;54.59;101291.06;701395;28;1504;-63
2021/08/22 00:44:14;;;;;;;3.15;2.85;;;;;;;19.87;54.61;101287.47;699566;28;22563;-64
2021/08/22 00:44:35;;;;;;;3.08;2.70;;;;;;;19.88;54.67;101289.16;699828;28;1442;-64
2021/08/22 00:44:56;;;;;;;3.55;2.90;;;;;;;19.88;54.66;101291.06;697841;28;22077;-64
2021/08/22 00:45:19;;;;;;;3.00;2.80;;;;;;;19.87;54.65;101289.38;697535;28;16659;-62
2021/08/22 00:45:42;;;;;;;2.95;2.75;;;;;;;19.87;54.64;101294.84;696929;28;44446;-63
2021/08/22 00:46:03;;;;;;;2.92;2.72;;;;;;;19.85;54.64;101286.03;695442;28;83898;-64
2021/08/22 00:46:31;;;;;;;3.10;2.90;;;;;;;19.84;54.72;101289.81;698478;28;1177;-64
2021/08/22 00:46:53;;;;;;;3.17;2.88;;;;;;;19.81;54.74;101291.09;694571;28;135571;-63
2021/08/22 00:47:17;;;;;;;2.95;2.75;;;;;;;19.82;54.82;101286.47;696554;28;92166;-64
2021/08/22 00:47:39;;;;;;;3.00;2.80;;;;;;;19.79;54.85;101285.00;699003;28;15897;-61
2021/08/22 00:48:01;;;;;;;2.90;2.70;;;;;;;19.80;54.92;101284.78;697152;28;69520;-64
2021/08/22 00:48:22;;;;;;;4.15;2.80;;;;;;;19.80;54.92;101290.28;698345;28;45529;-64
2021/08/22 00:48:44;;;;;;;5.38;2.97;;;;;;;19.79;54.89;101287.75;699729;28;11370;-64
2021/08/22 00:49:05;;;;;;;3.67;2.97;;;;;;;19.79;54.91;101287.75;698096;28;41219;-63
2021/08/22 00:49:29;;;;;;;2.90;2.70;;;;;;;19.78;54.86;101286.94;699486;28;1597;-64
2021/08/22 00:49:50;;;;;;;3.20;2.90;;;;;;;19.79;54.86;101290.50;696413;28;90755;-64
2021/08/22 00:50:12;;;;;;;4.07;2.67;;;;;;;19.77;54.92;101285.25;696438;28;22492;-63
2021/08/22 00:50:33;;;;;;;3.88;2.83;;;;;;;19.79;54.97;101283.09;696085;28;23416;-64
2021/08/22 00:50:55;;;;;;;3.10;2.90;;;;;;;19.78;54.63;101281.44;695227;28;45271;-63
2021/08/22 00:51:19;;;;;;;3.15;2.90;;;;;;;19.77;54.74;101285.25;697199;28;37833;-64
2021/08/22 00:51:41;;;;;;;3.85;3.10;;;;;;;19.76;54.79;101283.56;700601;28;23461;-62
2021/08/22 00:52:05;;;;;;;3.38;3.08;;;;;;;19.77;54.96;101281.66;697587;28;67574;-64
2021/08/22 00:52:27;;;;;;;3.17;2.88;;;;;;;19.76;54.91;101286.28;697131;28;92801;-62
2021/08/22 00:52:50;;;;;;;3.20;3.00;;;;;;;19.77;54.89;101276.19;698221;28;46327;-63
2021/08/22 00:53:13;;;;;;;3.08;2.83;;;;;;;19.74;54.86;101277.44;695695;28;93186;-62
2021/08/22 00:53:36;;;;;;;2.95;2.70;;;;;;;19.72;55.03;101270.53;699008;28;23390;-62
2021/08/22 00:53:58;;;;;;;2.83;2.63;;;;;;;19.73;55.03;101270.31;696503;28;92603;-61
2021/08/22 00:54:21;;;;;;;3.13;2.80;;;;;;;19.73;55.14;101278.53;697368;28;35303;-59
2021/08/22 00:54:42;;;;;;;3.38;2.95;;;;;;;19.73;54.93;101270.31;698829;28;20251;-63
2021/08/22 00:55:06;;;;;;;2.97;2.78;;;;;;;19.73;55.03;101278.53;697962;28;16170;-63
2021/08/22 00:55:28;;;;;;;3.00;2.80;;;;;;;19.72;55.11;101279.56;696170;28;92346;-62
2021/08/22 00:55:50;;;;;;;3.35;3.05;;;;;;;19.72;55.20;101273.25;700277;28;28518;-60
2021/08/22 00:56:12;;;;;;;3.00;2.70;;;;;;;19.72;55.06;101276.00;700292;28;32027;-63
2021/08/22 00:56:33;;;;;;;3.33;2.90;;;;;;;19.72;55.02;101276.00;699497;28;45039;-63
2021/08/22 00:57:01;;;;;;;3.17;2.97;;;;;;;19.73;55.17;101278.53;696813;28;60276;-59
2021/08/22 00:57:23;;;;;;;2.85;2.70;;;;;;;19.74;55.18;101274.69;699190;28;1256;-61
2021/08/22 00:57:44;;;;;;;3.20;2.78;;;;;;;19.73;55.26;101272.19;698174;28;23475;-62
2021/08/22 00:58:06;;;;;;;3.40;2.80;;;;;;;19.72;55.16;101273.25;699045;28;1638;-64
2021/08/22 00:58:46;;;;;;;3.25;2.85;;;;;;;19.71;55.24;101266.94;699034;28;8193;-63
2021/08/22 00:59:09;;;;;;;3.00;2.80;;;;;;;19.73;55.26;101275.78;697126;28;60229;-63
2021/08/22 00:59:30;;;;;;;2.85;2.65;;;;;;;19.70;55.22;101268.00;698444;28;37467;-65
2021/08/22 00:59:51;;;;;;;2.85;2.65;;;;;;;19.73;55.11;101267.56;698969;28;20755;-62
2021/08/22 01:00:21;;;;;;;4.13;2.80;;;;;;;19.71;54.75;101263.34;699571;28;15910;-65
2021/08/22 01:00:44;;;;;;;3.10;2.90;;;;;;;19.74;55.05;101269.22;694719;28;138731;-63
2021/08/22 01:01:12;;;;;;;2.80;2.60;;;;;;;19.73;55.07;101275.78;695665;28;116195;-63
2021/08/22 01:01:34;;;;;;;3.45;2.75;;;;;;;19.74;55.02;101271.13;694427;28;133565;-63
2021/08/22 01:01:59;;;;;;;3.20;2.80;;;;;;;19.72;55.12;101271.34;698058;28;47467;-64
2021/08/22 01:02:26;;;;;;;3.33;3.03;;;;;;;19.72;55.06;101267.78;696019;28;84387;-63
2021/08/22 01:02:52;;;;;;;3.00;2.80;;;;;;;19.72;55.11;101271.34;695576;28;110781;-63
2021/08/22 01:03:16;;;;;;;3.30;3.00;;;;;;;19.70;55.25;101265.28;690990;28;128296;-63
2021/08/22 01:03:42;;;;;;;3.35;2.88;;;;;;;19.68;54.98;101264.63;695063;28;91918;-63
2021/08/22 01:04:06;;;;;;;3.20;2.90;;;;;;;19.69;55.16;101271.81;694240;28;112314;-63
2021/08/22 01:04:32;;;;;;;3.05;2.83;;;;;;;19.69;55.24;101262.75;691189;28;134729;-63
2021/08/22 01:04:56;;;;;;;4.18;2.83;;;;;;;19.69;55.22;101262.75;691718;28;114866;-64
2021/08/22 01:05:25;;;;;;;3.60;2.97;;;;;;;19.67;55.11;101262.97;695369;28;113574;-64
2021/08/22 01:05:51;;;;;;;2.92;2.72;;;;;;;19.68;55.25;101258.31;694993;28;138751;-64
2021/08/22 01:06:18;;;;;;;3.08;2.85;;;;;;;19.67;55.23;101265.72;695359;28;105419;-63
2021/08/22 01:06:50;;;;;;;3.05;2.78;;;;;;;19.68;55.19;101258.31;696360;28;107090;-63
2021/08/22 01:07:16;;;;;;;3.15;2.90;;;;;;;19.66;55.19;101261.28;696919;28;130185;-64
2021/08/22 01:07:43;;;;;;;3.35;3.05;;;;;;;19.65;55.03;101262.34;695895;28;137847;-64
2021/08/22 01:08:12;;;;;;;2.83;2.63;;;;;;;19.65;55.11;101256.88;696374;28;135061;-63
2021/08/22 01:08:35;;;;;;;3.35;2.80;;;;;;;19.65;55.36;101259.59;696503;28;137878;-64
2021/08/22 01:09:00;;;;;;;3.13;2.93;;;;;;;19.65;55.32;101261.50;699288;28;66973;-64
2021/08/22 01:09:26;;;;;;;3.10;2.90;;;;;;;19.60;55.36;101249.31;697575;28;139087;-64
2021/08/22 01:09:49;;;;;;;2.70;2.50;;;;;;;19.61;55.37;101256.47;697338;27;161796;-64
2021/08/22 01:10:15;;;;;;;2.95;2.60;;;;;;;19.62;55.41;101258.16;699916;28;68477;-64
2021/08/22 01:10:38;;;;;;;2.95;2.75;;;;;;;19.62;55.33;101263.66;694768;28;139172;-65
2021/08/22 01:11:02;;;;;;;2.97;2.78;;;;;;;19.62;55.58;101257.31;697398;28;69505;-64
2021/08/22 01:11:27;;;;;;;3.33;3.05;;;;;;;19.61;55.39;101259.22;696568;28;90390;-63
2021/08/22 01:11:48;;;;;;;3.00;2.80;;;;;;;19.61;55.57;101261.97;696173;28;104799;-64
2021/08/22 01:12:14;;;;;;;2.88;2.67;;;;;;;19.61;55.46;101264.69;698613;28;26010;-62
2021/08/22 01:12:41;;;;;;;3.88;3.00;;;;;;;19.60;55.49;101262.19;694776;28;115057;-64
2021/08/22 01:13:05;;;;;;;13.48;9.15;;;;;;;19.60;55.49;101256.69;695505;28;137894;-63
2021/08/22 01:13:32;;;;;;;12.77;7.80;;;;;;;19.58;55.63;101258.84;696772;28;91486;-62
2021/08/22 01:13:56;;;;;;;6.35;4.82;;;;;;;19.58;55.56;101267.06;694426;28;156371;-63
2021/08/22 01:14:22;;;;;;;5.25;4.70;;;;;;;19.55;55.44;101262.84;698059;28;15004;-63
2021/08/22 01:14:56;;;;;;;4.47;3.67;;;;;;;19.56;55.67;101260.94;698527;28;60267;-63
2021/08/22 01:15:21;;;;;;;3.80;3.50;;;;;;;19.56;55.90;101266.44;698387;28;37725;-63
2021/08/22 01:15:50;;;;;;;3.40;3.10;;;;;;;19.55;55.81;101262.84;697968;28;61334;-63
2021/08/22 01:16:14;;;;;;;3.10;2.90;;;;;;;19.53;55.66;101259.50;697901;28;61012;-63
2021/08/22 01:16:39;;;;;;;3.60;3.22;;;;;;;19.54;55.89;101261.16;699214;28;960;-61
2021/08/22 01:17:00;;;;;;;3.58;3.28;;;;;;;19.53;55.73;101253.16;691785;28;115075;-64
2021/08/22 01:17:25;;;;;;;3.65;3.22;;;;;;;19.55;55.76;101262.03;694801;28;22405;-64
2021/08/22 01:17:51;;;;;;;4.50;3.50;;;;;;;19.55;55.75;101262.03;691453;28;101592;-64
2021/08/22 01:18:15;;;;;;;3.45;3.17;;;;;;;19.54;55.77;101254.88;687882;28;98590;-64
2021/08/22 01:18:39;;;;;;;3.38;3.08;;;;;;;19.53;55.77;101256.78;689126;28;91114;-64
2021/08/22 01:19:08;;;;;;;3.22;3.00;;;;;;;19.54;55.83;101254.88;693681;28;92377;-64
2021/08/22 01:19:42;;;;;;;3.17;2.97;;;;;;;19.56;55.87;101255.47;689245;28;136365;-63
2021/08/22 01:20:07;;;;;;;3.85;3.50;;;;;;;19.55;55.73;101251.91;690917;28;137380;-64
2021/08/22 01:20:37;;;;;;;3.67;3.22;;;;;;;19.53;55.69;101245.81;694805;28;89986;-64
2021/08/22 01:21:09;;;;;;;3.15;2.85;;;;;;;19.57;55.73;101251.66;694970;28;124241;-64
2021/08/22 01:21:32;;;;;;;3.03;2.83;;;;;;;19.57;55.57;101252.50;694952;28;138460;-63
2021/08/22 01:21:54;;;;;;;3.00;2.80;;;;;;;19.56;55.57;101253.59;699308;28;24965;-63
2021/08/22 01:22:18;;;;;;;3.22;2.92;;;;;;;19.57;55.48;101257.16;697001;28;90079;-63
2021/08/22 01:22:40;;;;;;;3.22;2.83;;;;;;;19.57;55.54;101257.16;696638;28;70216;-63
2021/08/22 01:23:02;;;;;;;4.25;3.00;;;;;;;19.57;55.52;101251.66;700316;28;21295;-63
2021/08/22 01:23:23;;;;;;;3.35;2.97;;;;;;;19.57;55.60;101257.16;699363;28;46328;-62
2021/08/22 01:23:48;;;;;;;3.05;2.83;;;;;;;19.55;55.58;101251.91;699818;28;46292;-63
2021/08/22 01:24:10;;;;;;;3.23;3.00;;;;;;;19.54;55.37;101258.44;696825;28;113643;-63
2021/08/22 01:24:31;;;;;;;3.33;3.08;;;;;;;19.52;55.65;101248.78;698583;28;67267;-63
2021/08/22 01:24:53;;;;;;;3.13;2.88;;;;;;;19.53;55.66;101256.78;699688;28;33904;-63
2021/08/22 01:25:16;;;;;;;3.05;2.70;;;;;;;19.54;55.57;101252.13;699076;28;22451;-63
2021/08/22 01:25:40;;;;;;;2.95;2.75;;;;;;;19.53;55.57;101251.28;700130;28;1442;-62
2021/08/22 01:26:02;;;;;;;3.15;2.95;;;;;;;19.53;55.61;101250.44;698902;28;89089;-63
2021/08/22 01:26:26;;;;;;;3.15;2.55;;;;;;;19.52;55.69;101251.50;699278;28;21796;-64
2021/08/22 01:26:47;;;;;;;2.85;2.60;;;;;;;19.49;55.62;101243.75;696210;28;92581;-63
2021/08/22 01:27:11;;;;;;;2.85;2.60;;;;;;;19.51;55.62;101250.66;696799;28;1013;-63
2021/08/22 01:27:33;;;;;;;3.08;2.78;;;;;;;19.50;55.63;101249.00;694930;28;46388;-63
2021/08/22 01:27:56;;;;;;;3.00;2.80;;;;;;;19.45;55.75;101246.06;696007;28;14985;-63
2021/08/22 01:28:18;;;;;;;3.20;2.90;;;;;;;19.48;55.72;101251.09;698361;28;1007;-64
2021/08/22 01:28:48;;;;;;;2.60;2.40;;;;;;;19.47;55.68;101246.72;694716;28;136952;-63
2021/08/22 01:29:12;;;;;;;3.03;2.70;;;;;;;19.48;55.75;101247.53;698044;28;37553;-63
2021/08/22 01:29:39;;;;;;;3.08;2.80;;;;;;;19.47;55.81;101254.94;697761;28;69593;-64
2021/08/22 01:30:04;;;;;;;2.90;2.70;;;;;;;19.47;55.82;101246.72;697861;28;59010;-63
2021/08/22 01:30:28;;;;;;;3.00;2.60;;;;;;;19.48;55.81;101245.63;696001;28;105466;-64
2021/08/22 01:30:50;;;;;;;2.90;2.70;;;;;;;19.47;55.77;101249.44;698062;28;46768;-62
2021/08/22 01:31:15;;;;;;;3.30;3.00;;;;;;;19.47;55.72;101254.94;698478;28;44073;-64
2021/08/22 01:31:39;;;;;;;3.78;3.47;;;;;;;19.48;55.77;101251.09;697076;28;116776;-64
2021/08/22 01:32:02;;;;;;;3.42;3.13;;;;;;;19.47;55.67;101246.72;695553;28;75219;-64
2021/08/22 01:32:23;;;;;;;4.15;3.33;;;;;;;19.47;55.74;101243.97;696233;28;64011;-63
2021/08/22 01:32:48;;;;;;;4.30;3.20;;;;;;;19.46;55.82;101247.75;695037;28;1488;-64
2021/08/22 01:33:09;;;;;;;3.42;3.10;;;;;;;19.45;55.79;101244.19;692727;28;65549;-64
2021/08/22 01:33:32;;;;;;;3.08;2.88;;;;;;;19.45;55.86;101251.56;692151;28;40278;-64
2021/08/22 01:33:54;;;;;;;3.15;2.85;;;;;;;19.44;55.72;101245.25;693616;28;59244;-62
2021/08/22 01:34:18;;;;;;;3.28;2.88;;;;;;;19.45;55.92;101248.81;695929;28;4566;-63
2021/08/22 01:34:40;;;;;;;2.97;2.78;;;;;;;19.46;55.81;101245.03;692384;28;92336;-64
2021/08/22 01:35:02;;;;;;;3.33;3.08;;;;;;;19.44;55.81;101245.25;692065;28;22404;-64
2021/08/22 01:35:24;;;;;;;3.05;2.60;;;;;;;19.44;55.86;101242.50;691744;28;69464;-63
2021/08/22 01:35:46;;;;;;;2.75;2.55;;;;;;;19.45;55.87;101240.59;695603;28;977;-64
2021/08/22 01:36:13;;;;;;;3.15;2.95;;;;;;;19.47;55.66;101243.09;693275;28;60545;-64
2021/08/22 01:36:36;;;;;;;3.30;3.00;;;;;;;19.46;55.89;101247.75;697284;28;898;-64
2021/08/22 01:37:00;;;;;;;2.95;2.60;;;;;;;19.46;55.88;101242.28;698511;28;36543;-65
2021/08/22 01:37:23;;;;;;;3.13;2.80;;;;;;;19.45;55.88;101244.19;699980;28;921;-65
2021/08/22 01:37:45;;;;;;;3.47;2.80;;;;;;;19.41;55.66;101240.22;698243;28;11780;-63
2021/08/22 01:38:09;;;;;;;3.95;2.90;;;;;;;19.46;55.99;101247.75;699659;28;842;-64
2021/08/22 01:38:32;;;;;;;2.90;2.63;;;;;;;19.47;55.65;101251.31;697169;28;38956;-64
2021/08/22 01:38:54;;;;;;;4.00;2.90;;;;;;;19.43;55.90;101240.81;698602;28;992;-62
2021/08/22 01:39:19;;;;;;;3.20;2.90;;;;;;;19.47;55.77;101248.59;693967;28;115222;-62
2021/08/22 01:39:42;;;;;;;3.00;2.80;;;;;;;19.45;55.85;101246.06;696108;28;62066;-63
2021/08/22 01:40:06;;;;;;;2.92;2.72;;;;;;;19.46;55.79;101255.97;696236;28;58557;-65
2021/08/22 01:40:27;;;;;;;2.90;2.70;;;;;;;19.45;55.83;101244.19;697111;28;70451;-63
2021/08/22 01:40:53;;;;;;;2.97;2.78;;;;;;;19.45;55.99;101254.28;698815;28;36348;-63
2021/08/22 01:41:15;;;;;;;2.90;2.67;;;;;;;19.44;55.84;101241.69;698331;28;41630;-63
2021/08/22 01:41:37;;;;;;;2.92;2.60;;;;;;;19.44;55.75;101249.91;698773;28;47176;-63
2021/08/22 01:41:59;;;;;;;2.75;2.55;;;;;;;19.44;55.77;101247.16;699454;28;26802;-63
2021/08/22 01:42:23;;;;;;;2.97;2.70;;;;;;;19.38;55.88;101237.09;698465;28;38875;-63
2021/08/22 01:42:45;;;;;;;3.00;2.80;;;;;;;19.40;55.86;101246.78;699884;28;1750;-63
2021/08/22 01:43:10;;;;;;;3.20;2.80;;;;;;;19.41;55.86;101245.69;698718;28;34335;-64
2021/08/22 01:43:37;;;;;;;3.03;2.78;;;;;;;19.41;55.80;101242.94;696065;28;115407;-63
2021/08/22 01:43:59;;;;;;;3.85;2.80;;;;;;;19.42;55.88;101241.06;694920;28;137943;-63
2021/08/22 01:44:21;;;;;;;2.95;2.75;;;;;;;19.41;55.97;101236.66;691382;28;4716;-64
2021/08/22 01:44:43;;;;;;;2.90;2.70;;;;;;;19.42;55.94;101238.34;698239;28;45082;-65
2021/08/22 01:45:08;;;;;;;3.00;2.80;;;;;;;19.43;55.87;101248.22;698790;28;1411;-64
2021/08/22 01:45:33;;;;;;;3.20;2.90;;;;;;;19.40;55.95;101238.56;697602;28;60574;-64
2021/08/22 01:45:55;;;;;;;3.08;2.83;;;;;;;19.41;55.88;101234.72;698619;28;45330;-64
2021/08/22 01:46:19;;;;;;;3.50;3.20;;;;;;;19.42;55.90;101241.91;699739;28;1349;-63
2021/08/22 01:46:41;;;;;;;3.25;3.05;;;;;;;19.43;55.94;101240.00;697655;28;65359;-63
2021/08/22 01:47:03;;;;;;;3.05;2.85;;;;;;;19.40;55.81;101233.09;700027;28;1949;-65
2021/08/22 01:47:24;;;;;;;3.15;2.85;;;;;;;19.40;55.79;101235.81;696093;28;35058;-63
2021/08/22 01:47:52;;;;;;;3.88;3.25;;;;;;;19.42;55.80;101232.84;695637;28;8923;-61
2021/08/22 01:48:13;;;;;;;3.40;3.10;;;;;;;19.40;55.87;101230.34;692346;28;128979;-63
2021/08/22 01:48:39;;;;;;;3.60;3.08;;;;;;;19.39;55.69;101234.13;696489;28;21540;-63
2021/08/22 01:49:04;;;;;;;2.95;2.72;;;;;;;19.39;55.79;101227.81;695671;28;92128;-64